Time;durP1;ratioP1;P1;durP2;ratioP2;P2;SDS_P1;SDS_P2;PMS_P1;PMS_P2;Temp;Humidity;BMP_temperature;BMP_pressure;BME280_temperature;BME280_humidity;BME280_pressure;Samples;Min_cycle;Max_cycle;Signal;HPM_P1;HPM_P2
2022/04/01 00:00:00;;;;;;;7.22;3.22;;;0.70;99.90;;;;;;5051313;28;20056;-69
2022/04/01 00:02:25;;;;;;;4.15;2.63;;;0.70;99.90;;;;;;5051100;28;20087;-68
2022/04/01 00:04:51;;;;;;;4.47;2.47;;;0.70;99.90;;;;;;5051256;28;20094;-69
2022/04/01 00:07:17;;;;;;;5.25;2.88;;;0.70;99.90;;;;;;5034491;28;20041;-68
2022/04/01 00:09:43;;;;;;;4.72;2.70;;;0.70;99.90;;;;;;5065916;28;20041;-68
2022/04/01 00:12:09;;;;;;;5.07;2.55;;;0.70;99.90;;;;;;5031088;28;20122;-70
2022/04/01 00:14:36;;;;;;;3.88;2.58;;;0.70;99.90;;;;;;5033712;28;20555;-68
2022/04/01 00:17:02;;;;;;;5.13;2.92;;;0.70;99.90;;;;;;5035116;28;20041;-68
2022/04/01 00:19:28;;;;;;;4.68;2.75;;;0.70;99.90;;;;;;5035334;28;20394;-69
2022/04/01 00:21:55;;;;;;;3.78;2.25;;;0.60;99.90;;;;;;5035977;28;20042;-67
2022/04/01 00:24:23;;;;;;;4.10;2.10;;;0.60;99.90;;;;;;5051637;28;20129;-67
2022/04/01 00:26:49;;;;;;;5.82;2.40;;;0.60;99.90;;;;;;5035952;28;20444;-68
2022/04/01 00:29:15;;;;;;;5.15;2.50;;;0.70;99.90;;;;;;5035125;28;20127;-70
2022/04/01 00:31:45;;;;;;;4.50;1.85;;;0.70;99.90;;;;;;5068086;28;20037;-69
2022/04/01 00:34:17;;;;;;;4.28;2.20;;;0.70;99.90;;;;;;5034698;28;20052;-69
2022/04/01 00:36:50;;;;;;;3.28;2.00;;;0.70;99.90;;;;;;5051298;28;20053;-70
2022/04/01 00:39:19;;;;;;;4.57;2.55;;;0.70;99.90;;;;;;5032436;28;20142;-68
2022/04/01 00:41:46;;;;;;;4.20;1.98;;;0.70;99.90;;;;;;5035745;28;20077;-71
2022/04/01 00:44:22;;;;;;;6.15;2.50;;;0.70;99.90;;;;;;5035715;28;20042;-70
2022/04/01 00:46:55;;;;;;;7.70;2.67;;;0.70;99.90;;;;;;5034714;28;20060;-69
2022/04/01 00:49:22;;;;;;;4.65;2.30;;;0.80;99.90;;;;;;5051076;28;20038;-70
2022/04/01 00:51:51;;;;;;;5.90;2.20;;;0.80;99.90;;;;;;5035806;28;20049;-70
2022/04/01 00:54:17;;;;;;;4.80;2.20;;;0.80;99.90;;;;;;5035446;28;20521;-70
2022/04/01 00:56:44;;;;;;;3.97;2.05;;;0.80;99.90;;;;;;5035619;28;20033;-70
2022/04/01 00:59:10;;;;;;;3.10;2.10;;;0.90;99.90;;;;;;5035448;28;20513;-71
2022/04/01 01:01:37;;;;;;;5.13;2.13;;;0.90;99.90;;;;;;5034131;28;20052;-71
2022/04/01 01:04:07;;;;;;;3.10;1.83;;;0.90;99.90;;;;;;5034383;28;20425;-71
2022/04/01 01:06:37;;;;;;;5.28;2.50;;;0.90;99.90;;;;;;5035641;28;20044;-73
2022/04/01 01:09:03;;;;;;;2.33;1.50;;;1.00;99.90;;;;;;5033506;28;20474;-72
2022/04/01 01:11:31;;;;;;;4.30;1.90;;;1.00;99.90;;;;;;5034081;28;20049;-71
2022/04/01 01:13:57;;;;;;;5.85;2.20;;;1.00;99.90;;;;;;5049326;28;20125;-72
2022/04/01 01:16:23;;;;;;;3.33;1.77;;;1.00;99.90;;;;;;5087415;28;20136;-70
2022/04/01 01:19:00;;;;;;;4.78;1.70;;;1.00;99.90;;;;;;5055283;28;20114;-69
2022/04/01 01:21:27;;;;;;;6.15;1.98;;;1.10;99.90;;;;;;5055109;28;20120;-71
2022/04/01 01:24:06;;;;;;;8.30;2.53;;;1.10;99.90;;;;;;5087522;28;20036;-71
2022/04/01 01:26:34;;;;;;;7.25;2.05;;;1.10;99.90;;;;;;5053757;28;20061;-71
2022/04/01 01:29:00;;;;;;;3.80;1.83;;;1.10;99.90;;;;;;5087398;28;20639;-71
2022/04/01 01:31:27;;;;;;;3.70;1.85;;;1.10;99.90;;;;;;5053710;28;20076;-67
2022/04/01 01:33:57;;;;;;;3.88;2.10;;;1.10;99.90;;;;;;5053808;28;20041;-71
2022/04/01 01:36:24;;;;;;;;;;;1.10;99.90;;;;;;5037559;28;20132;-70
2022/04/01 01:38:51;;;;;;;2.30;1.40;;;1.10;99.90;;;;;;5053637;28;19979;-68
2022/04/01 01:41:16;;;;;;;3.38;1.77;;;1.10;99.90;;;;;;5051116;28;20073;-70
2022/04/01 01:43:42;;;;;;;5.18;1.50;;;1.10;99.90;;;;;;5053336;28;20083;-69
2022/04/01 01:46:09;;;;;;;3.28;1.60;;;1.10;99.90;;;;;;5054832;28;20033;-67
2022/04/01 01:48:34;;;;;;;2.88;1.50;;;1.10;99.90;;;;;;5036941;28;20458;-68
2022/04/01 01:56:29;;;;;;;6.55;2.00;;;1.10;99.90;;;;;;5053447;28;20053;-66
2022/04/01 01:58:55;;;;;;;3.88;1.70;;;1.20;99.90;;;;;;5053153;28;20045;-69
2022/04/01 02:01:22;;;;;;;2.95;1.30;;;1.10;99.90;;;;;;5036507;28;20045;-69
2022/04/01 02:03:49;;;;;;;3.88;1.75;;;1.20;99.90;;;;;;5053145;28;20033;-67
2022/04/01 02:06:15;;;;;;;5.50;2.42;;;1.20;99.90;;;;;;5053166;28;20055;-67
2022/04/01 02:08:42;;;;;;;2.67;1.60;;;1.10;99.90;;;;;;5054375;28;20036;-67
2022/04/01 02:11:08;;;;;;;3.42;1.52;;;1.20;99.90;;;;;;5052128;28;20120;-70
2022/04/01 02:13:34;;;;;;;4.00;1.55;;;1.20;99.90;;;;;;5054136;28;20033;-67
2022/04/01 02:16:01;;;;;;;2.55;1.40;;;1.20;99.90;;;;;;5054304;28;20072;-69
2022/04/01 02:18:27;;;;;;;3.03;1.48;;;1.20;99.90;;;;;;5036423;28;20045;-70
2022/04/01 02:20:53;;;;;;;4.80;1.58;;;1.20;99.90;;;;;;5054093;28;20056;-71
2022/04/01 02:23:19;;;;;;;3.80;1.50;;;1.20;99.90;;;;;;5052736;28;20045;-68
2022/04/01 02:25:45;;;;;;;3.38;1.30;;;1.20;99.90;;;;;;5053935;28;20045;-69
2022/04/01 02:28:12;;;;;;;2.88;1.58;;;1.20;99.90;;;;;;5052760;28;20045;-68
2022/04/01 02:30:39;;;;;;;3.33;1.63;;;1.20;99.90;;;;;;5052724;28;20076;-68
2022/04/01 02:33:06;;;;;;;4.93;1.95;;;1.30;99.90;;;;;;5052828;28;20041;-69
2022/04/01 02:35:33;;;;;;;3.22;1.70;;;1.20;99.90;;;;;;5052733;28;20041;-68
2022/04/01 02:37:59;;;;;;;4.78;1.80;;;1.20;99.90;;;;;;5053578;28;20045;-68
2022/04/01 02:40:25;;;;;;;3.35;1.60;;;1.20;99.90;;;;;;5051556;28;20060;-68
2022/04/01 02:42:53;;;;;;;3.45;1.60;;;1.20;99.90;;;;;;5052435;28;20075;-68
2022/04/01 02:45:24;;;;;;;4.28;1.75;;;1.20;99.90;;;;;;5053476;28;20044;-69
2022/04/01 02:47:50;;;;;;;2.13;1.35;;;1.10;99.90;;;;;;5053534;28;20477;-69
2022/04/01 02:50:16;;;;;;;4.72;1.80;;;1.10;99.90;;;;;;5052101;28;20504;-70
2022/04/01 02:52:42;;;;;;;4.97;1.50;;;1.10;99.90;;;;;;5052287;28;20047;-69
2022/04/01 02:55:09;;;;;;;2.55;1.58;;;1.10;99.90;;;;;;5052395;28;20041;-69
2022/04/01 02:57:35;;;;;;;2.67;1.48;;;1.00;99.90;;;;;;5035581;28;20474;-69
2022/04/01 03:00:01;;;;;;;3.65;1.67;;;1.10;99.90;;;;;;5035418;28;20051;-69
2022/04/01 03:02:27;;;;;;;3.58;1.70;;;1.10;99.90;;;;;;5035560;28;20092;-69
2022/04/01 03:04:53;;;;;;;4.22;1.90;;;1.10;99.90;;;;;;5052162;28;20491;-69
2022/04/01 03:07:19;;;;;;;4.57;2.03;;;1.00;99.90;;;;;;5052279;28;20033;-69
2022/04/01 03:09:45;;;;;;;3.15;1.60;;;1.10;99.90;;;;;;5051017;28;20072;-69
2022/04/01 03:12:11;;;;;;;4.07;1.40;;;1.10;99.90;;;;;;5052046;28;20041;-69
2022/04/01 03:14:37;;;;;;;5.90;1.60;;;1.10;99.90;;;;;;5051710;28;20111;-72
2022/04/01 03:17:03;;;;;;;4.57;2.22;;;1.10;99.90;;;;;;5052846;28;20036;-70
2022/04/01 03:19:29;;;;;;;7.03;1.83;;;1.10;99.90;;;;;;5051946;28;20067;-72
2022/04/01 03:21:55;;;;;;;3.75;2.15;;;1.10;99.90;;;;;;5051816;28;20041;-71
2022/04/01 03:24:21;;;;;;;4.60;1.98;;;1.10;99.90;;;;;;5051844;28;20474;-70
2022/04/01 03:26:47;;;;;;;7.68;2.42;;;1.10;99.90;;;;;;5051521;28;20057;-71
2022/04/01 03:29:13;;;;;;;3.38;1.98;;;1.10;99.90;;;;;;5052830;28;20131;-70
2022/04/01 03:31:40;;;;;;;2.70;1.60;;;1.00;99.90;;;;;;5052803;28;20045;-70
2022/04/01 03:34:06;;;;;;;3.60;1.83;;;1.00;99.90;;;;;;5051555;28;20195;-71
2022/04/01 03:36:33;;;;;;;4.57;2.00;;;1.00;99.90;;;;;;5035290;28;20203;-70
2022/04/01 03:39:00;;;;;;;3.30;1.50;;;1.00;99.90;;;;;;5052140;28;20045;-70
2022/04/01 03:41:27;;;;;;;3.25;1.90;;;0.90;99.90;;;;;;5033425;28;20041;-70
2022/04/01 03:43:52;;;;;;;4.93;2.17;;;0.90;99.90;;;;;;5085275;28;20390;-71
2022/04/01 03:46:22;;;;;;;3.58;2.03;;;0.90;99.90;;;;;;5051488;28;20041;-71
2022/04/01 03:49:00;;;;;;;3.65;1.77;;;0.90;99.90;;;;;;5055874;28;20060;-71
2022/04/01 03:51:28;;;;;;;5.78;1.85;;;0.90;99.90;;;;;;5058132;28;20379;-71
2022/04/01 03:54:04;;;;;;;2.92;1.58;;;0.90;99.90;;;;;;5059283;28;20123;-71
2022/04/01 03:56:32;;;;;;;3.17;1.60;;;0.90;99.90;;;;;;5091546;28;20045;-70
2022/04/01 03:59:12;;;;;;;3.42;1.70;;;0.90;99.90;;;;;;5041443;28;20040;-71
2022/04/01 04:01:40;;;;;;;6.70;1.95;;;0.90;99.90;;;;;;5091352;28;20492;-70
2022/04/01 04:04:07;;;;;;;6.35;2.00;;;0.90;99.90;;;;;;5057884;28;20044;-71
2022/04/01 04:06:38;;;;;;;3.95;1.95;;;0.90;99.90;;;;;;5057788;28;20098;-71
2022/04/01 04:09:04;;;;;;;3.85;1.60;;;0.90;99.90;;;;;;5072951;28;20037;-71
2022/04/01 04:11:34;;;;;;;5.22;2.10;;;0.90;99.90;;;;;;5058213;28;20052;-71
2022/04/01 04:14:03;;;;;;;3.03;1.98;;;0.90;99.90;;;;;;5042101;28;20077;-71
2022/04/01 04:16:45;;;;;;;5.65;2.20;;;0.90;99.90;;;;;;5039028;28;20045;-70
2022/04/01 04:19:22;;;;;;;5.03;2.30;;;0.90;99.90;;;;;;5039146;28;20037;-70
2022/04/01 04:22:13;;;;;;;3.42;1.83;;;0.90;99.90;;;;;;5037638;28;20033;-71
2022/04/01 04:24:49;;;;;;;3.95;2.28;;;1.00;99.90;;;;;;5052614;28;20045;-71
2022/04/01 04:27:22;;;;;;;5.65;2.20;;;1.00;99.90;;;;;;5071014;28;20052;-71
2022/04/01 04:29:52;;;;;;;4.50;1.55;;;1.00;99.90;;;;;;5037734;28;20116;-71
2022/04/01 04:32:27;;;;;;;;;;;1.00;99.90;;;;;;5039234;28;20033;-71
2022/04/01 04:34:56;;;;;;;3.75;1.80;;;1.00;99.90;;;;;;5038995;28;19921;-70
2022/04/01 04:37:25;;;;;;;5.88;1.70;;;1.00;99.90;;;;;;5037570;28;20045;-71
2022/04/01 04:39:54;;;;;;;5.07;1.80;;;1.10;99.90;;;;;;5068859;28;20099;-71
2022/04/01 04:42:21;;;;;;;3.88;1.45;;;1.10;99.90;;;;;;5038717;28;20120;-71
2022/04/01 04:44:49;;;;;;;3.00;1.67;;;1.10;99.90;;;;;;5070654;28;20073;-71
2022/04/01 04:47:18;;;;;;;2.58;1.65;;;1.10;99.90;;;;;;5037523;28;20129;-71
2022/04/01 04:49:47;;;;;;;7.32;1.52;;;1.10;99.90;;;;;;5071090;28;20045;-71
2022/04/01 04:52:16;;;;;;;2.75;1.55;;;1.10;99.90;;;;;;5037387;28;20037;-71
2022/04/01 04:54:42;;;;;;;2.78;1.45;;;1.20;99.90;;;;;;5071061;28;20037;-71
2022/04/01 04:57:08;;;;;;;2.95;1.70;;;1.20;99.90;;;;;;5037581;28;20042;-70
2022/04/01 04:59:35;;;;;;;3.13;1.42;;;1.20;99.90;;;;;;5038178;28;20398;-71
2022/04/01 05:02:05;;;;;;;7.93;2.88;;;1.20;99.90;;;;;;5034068;28;20073;-71
2022/04/01 05:04:52;;;;;;;4.72;1.45;;;1.20;99.90;;;;;;5035589;28;20409;-70
2022/04/01 05:07:29;;;;;;;3.47;1.52;;;1.30;99.90;;;;;;5067531;28;20551;-71
2022/04/01 05:10:08;;;;;;;3.20;1.35;;;1.20;99.90;;;;;;5032220;28;20057;-71
2022/04/01 05:12:55;;;;;;;5.68;1.40;;;1.30;99.90;;;;;;5039074;28;20037;-70
2022/04/01 05:15:36;;;;;;;3.55;1.40;;;1.20;99.90;;;;;;5053952;28;20098;-68
2022/04/01 05:18:12;;;;;;;6.13;1.40;;;1.30;99.90;;;;;;5037361;28;20033;-69
2022/04/01 05:20:46;;;;;;;4.68;1.52;;;1.30;99.90;;;;;;5055086;28;20474;-70
2022/04/01 05:23:15;;;;;;;5.82;1.52;;;1.30;99.90;;;;;;5037601;28;20049;-70
2022/04/01 05:25:44;;;;;;;4.25;1.25;;;1.30;99.90;;;;;;5054836;28;20529;-69
2022/04/01 05:28:24;;;;;;;5.10;1.55;;;1.30;99.90;;;;;;5053676;28;20049;-70
2022/04/01 05:31:33;;;;;;;4.70;1.58;;;1.30;99.90;;;;;;5037112;28;20040;-69
2022/04/01 05:34:09;;;;;;;3.67;1.60;;;1.30;99.90;;;;;;5035744;28;20064;-69
2022/04/01 05:36:37;;;;;;;4.07;1.58;;;1.30;99.90;;;;;;5054342;28;20098;-69
2022/04/01 05:39:05;;;;;;;5.50;1.50;;;1.40;99.90;;;;;;5069371;28;20045;-70
2022/04/01 05:41:32;;;;;;;5.03;1.42;;;1.40;99.90;;;;;;5054074;28;20048;-69
2022/04/01 05:43:58;;;;;;;4.43;1.60;;;1.40;99.90;;;;;;5087211;28;20033;-70
2022/04/01 05:46:25;;;;;;;2.40;1.33;;;1.40;99.90;;;;;;5086994;28;20385;-70
2022/04/01 05:48:53;;;;;;;4.55;1.50;;;1.50;99.90;;;;;;5054477;28;20611;-70
2022/04/01 05:51:19;;;;;;;5.25;1.70;;;1.50;99.90;;;;;;5053939;28;20045;-71
2022/04/01 05:53:48;;;;;;;3.10;1.50;;;1.50;99.90;;;;;;5088108;28;20044;-71
2022/04/01 05:56:14;;;;;;;2.90;1.88;;;1.50;99.90;;;;;;5054661;28;20052;-68
2022/04/01 05:58:42;;;;;;;9.32;1.65;;;1.50;99.90;;;;;;5086797;28;20497;-69
2022/04/01 06:01:20;;;;;;;5.40;1.75;;;1.60;99.90;;;;;;5036613;28;20045;-71
2022/04/01 06:04:06;;;;;;;3.00;1.38;;;1.60;99.90;;;;;;5054351;28;20486;-70
2022/04/01 06:06:40;;;;;;;4.43;1.55;;;1.60;99.90;;;;;;5054171;28;20055;-69
2022/04/01 06:09:35;;;;;;;5.50;1.52;;;1.70;99.90;;;;;;5085720;28;20072;-71
2022/04/01 06:12:03;;;;;;;4.53;1.60;;;1.70;99.90;;;;;;5085963;28;20052;-70
2022/04/01 06:15:06;;;;;;;3.33;1.25;;;1.80;99.90;;;;;;5053823;28;20037;-70
2022/04/01 06:17:45;;;;;;;2.60;1.08;;;1.80;99.90;;;;;;5052893;28;20040;-71
2022/04/01 06:20:15;;;;;;;5.65;1.52;;;1.80;99.90;;;;;;5053939;28;20045;-71
2022/04/01 06:22:59;;;;;;;5.35;1.98;;;1.90;99.90;;;;;;5052788;28;20128;-69
2022/04/01 06:25:29;;;;;;;3.72;1.40;;;2.00;99.90;;;;;;5036523;28;20080;-72
2022/04/01 06:28:24;;;;;;;2.75;1.40;;;2.00;99.90;;;;;;5054228;28;20048;-70
2022/04/01 06:30:52;;;;;;;2.35;1.50;;;2.10;99.90;;;;;;5052873;28;20052;-70
2022/04/01 06:33:49;;;;;;;3.65;1.90;;;2.10;99.90;;;;;;5054015;28;20445;-72
2022/04/01 06:36:22;;;;;;;4.53;1.60;;;2.20;99.90;;;;;;5053004;28;20041;-71
2022/04/01 06:39:03;;;;;;;4.93;1.52;;;2.20;99.90;;;;;;5052802;28;20134;-71
2022/04/01 06:41:39;;;;;;;2.65;1.50;;;2.20;99.90;;;;;;5051098;28;20098;-73
2022/04/01 06:44:05;;;;;;;2.78;1.52;;;2.20;99.90;;;;;;5054436;28;20032;-70
2022/04/01 06:46:30;;;;;;;3.30;1.70;;;2.30;99.90;;;;;;5052866;28;20040;-72
2022/04/01 06:48:56;;;;;;;8.57;1.70;;;2.30;99.90;;;;;;5036119;28;20041;-72
2022/04/01 06:51:22;;;;;;;4.50;1.50;;;2.30;99.90;;;;;;5053818;28;20044;-70
2022/04/01 06:53:48;;;;;;;1.85;1.02;;;2.30;99.90;;;;;;5052526;28;20071;-72
2022/04/01 06:56:14;;;;;;;6.28;2.08;;;2.30;99.90;;;;;;5052260;28;20421;-72
2022/04/01 06:58:40;;;;;;;2.33;1.30;;;2.30;99.90;;;;;;5052561;28;20500;-73
2022/04/01 07:01:06;;;;;;;8.15;1.90;;;2.40;99.90;;;;;;5053888;28;20048;-72
2022/04/01 07:03:33;;;;;;;2.72;1.30;;;2.40;99.90;;;;;;5053644;28;20041;-72
2022/04/01 07:05:59;;;;;;;3.80;2.05;;;2.50;99.90;;;;;;5053004;28;20048;-72
2022/04/01 07:08:25;;;;;;;5.03;1.35;;;2.50;99.90;;;;;;5035140;28;20049;-71
2022/04/01 07:10:50;;;;;;;2.60;1.42;;;2.50;99.90;;;;;;5049592;28;20412;-70
2022/04/01 07:13:17;;;;;;;4.38;1.70;;;2.60;99.90;;;;;;5053150;28;20048;-70
2022/04/01 07:15:45;;;;;;;2.70;1.23;;;2.60;99.90;;;;;;5051366;28;20501;-71
2022/04/01 07:18:12;;;;;;;2.10;1.23;;;2.70;99.90;;;;;;5082968;28;20147;-70
2022/04/01 07:20:38;;;;;;;4.68;1.38;;;2.70;99.90;;;;;;5051532;28;20442;-70
2022/04/01 07:23:06;;;;;;;5.07;1.83;;;2.70;99.90;;;;;;5084304;28;20044;-70
2022/04/01 07:25:32;;;;;;;7.78;3.05;;;2.70;99.90;;;;;;5084867;28;20045;-69
2022/04/01 07:27:58;;;;;;;2.33;1.23;;;2.80;99.90;;;;;;5051671;28;20128;-69
2022/04/01 07:30:24;;;;;;;4.07;1.50;;;2.80;99.90;;;;;;5051637;28;20128;-70
2022/04/01 07:32:55;;;;;;;3.42;1.30;;;2.90;99.90;;;;;;5051538;28;20048;-69
2022/04/01 07:35:21;;;;;;;4.63;1.88;;;2.90;99.90;;;;;;5085034;28;20051;-71
2022/04/01 07:37:47;;;;;;;6.10;2.38;;;3.00;99.90;;;;;;5052594;28;20393;-70
2022/04/01 07:40:16;;;;;;;4.60;1.50;;;3.10;99.90;;;;;;5049434;28;20045;-70
2022/04/01 07:42:42;;;;;;;2.88;1.00;;;3.10;99.90;;;;;;5052617;28;20473;-73
2022/04/01 07:45:09;;;;;;;3.30;1.10;;;3.10;99.90;;;;;;5085274;28;20397;-70
2022/04/01 07:47:35;;;;;;;2.78;1.23;;;3.20;99.90;;;;;;5051507;28;20390;-71
2022/04/01 07:50:03;;;;;;;4.13;1.02;;;3.30;99.90;;;;;;5051459;28;20041;-69
2022/04/01 07:52:29;;;;;;;3.97;1.40;;;3.40;99.90;;;;;;5052583;28;20393;-74
2022/04/01 07:54:55;;;;;;;2.65;1.10;;;3.40;99.90;;;;;;5052881;28;20108;-73
2022/04/01 07:57:21;;;;;;;1.73;1.00;;;3.50;99.90;;;;;;5052715;28;20461;-69
2022/04/01 07:59:47;;;;;;;3.83;1.33;;;3.50;99.90;;;;;;5052647;28;20033;-71
2022/04/01 08:02:14;;;;;;;2.78;1.15;;;3.60;99.90;;;;;;5084703;28;20125;-73
2022/04/01 08:04:40;;;;;;;2.17;0.90;;;3.60;99.90;;;;;;5051333;28;20099;-76
2022/04/01 08:07:07;;;;;;;3.78;1.33;;;3.70;99.90;;;;;;5052479;28;20044;-72
2022/04/01 08:09:33;;;;;;;2.35;1.08;;;3.80;99.90;;;;;;5032416;28;20048;-73
2022/04/01 08:12:01;;;;;;;6.85;1.20;;;3.80;99.90;;;;;;5052627;28;20069;-72
2022/04/01 08:14:27;;;;;;;3.22;0.98;;;3.90;99.90;;;;;;5051157;28;20074;-68
2022/04/01 08:16:53;;;;;;;3.15;1.42;;;4.00;99.90;;;;;;5052327;28;20523;-72
2022/04/01 08:19:22;;;;;;;4.00;1.05;;;4.10;99.90;;;;;;5052335;28;20045;-71
2022/04/01 08:21:49;;;;;;;3.67;1.10;;;4.20;99.90;;;;;;5050979;28;20124;-69
2022/04/01 08:24:16;;;;;;;3.22;1.13;;;4.30;99.90;;;;;;5052497;28;20385;-68
2022/04/01 08:26:42;;;;;;;1.67;0.90;;;4.40;99.90;;;;;;5049968;28;20064;-71
2022/04/01 08:29:08;;;;;;;2.15;1.02;;;4.60;99.90;;;;;;5052034;28;20497;-68
2022/04/01 08:31:34;;;;;;;1.80;1.10;;;4.70;99.90;;;;;;5051239;28;20033;-68
2022/04/01 08:34:00;;;;;;;3.95;1.35;;;4.80;99.90;;;;;;5050729;28;20075;-70
2022/04/01 08:36:26;;;;;;;3.33;1.30;;;5.00;99.90;;;;;;5055915;28;20477;-69
2022/04/01 08:38:52;;;;;;;3.13;1.73;;;5.10;99.90;;;;;;5055893;28;20041;-68
2022/04/01 08:41:20;;;;;;;4.35;1.13;;;5.00;99.90;;;;;;5052660;28;20120;-68
2022/04/01 08:43:47;;;;;;;2.33;1.50;;;5.00;99.90;;;;;;5054498;28;20037;-69
2022/04/01 08:46:14;;;;;;;4.95;1.58;;;4.80;99.90;;;;;;5038183;28;20049;-69
2022/04/01 08:48:41;;;;;;;3.90;1.73;;;4.80;99.90;;;;;;5055708;28;20037;-68
2022/04/01 08:51:07;;;;;;;3.78;1.70;;;4.60;99.90;;;;;;5054511;28;20060;-69
2022/04/01 08:53:41;;;;;;;3.92;1.50;;;4.60;99.90;;;;;;5054481;28;20053;-73
2022/04/01 08:56:08;;;;;;;3.70;1.40;;;4.70;99.90;;;;;;5055985;28;20045;-69
2022/04/01 08:58:36;;;;;;;3.05;1.75;;;4.90;99.90;;;;;;5054652;28;20106;-68
2022/04/01 09:01:03;;;;;;;5.57;1.75;;;5.00;99.90;;;;;;5055623;28;20106;-68
2022/04/01 09:03:30;;;;;;;4.40;1.38;;;5.00;99.90;;;;;;5051583;28;20056;-69
2022/04/01 09:05:59;;;;;;;3.83;1.67;;;5.20;99.90;;;;;;5055769;28;20401;-68
2022/04/01 09:08:32;;;;;;;4.03;1.50;;;5.30;99.90;;;;;;5054454;28;20037;-69
2022/04/01 09:11:03;;;;;;;4.80;1.90;;;5.50;99.90;;;;;;5052433;28;20397;-68
2022/04/01 09:13:48;;;;;;;5.82;1.83;;;5.60;99.90;;;;;;5051550;28;20052;-70
2022/04/01 09:16:27;;;;;;;2.72;1.55;;;5.70;99.90;;;;;;5054168;28;20037;-70
2022/04/01 09:18:55;;;;;;;4.05;1.80;;;5.80;99.90;;;;;;5054251;28;20048;-69
2022/04/01 09:21:26;;;;;;;3.55;1.70;;;5.90;99.90;;;;;;5055138;28;20083;-67
2022/04/01 09:23:52;;;;;;;3.63;1.70;;;5.80;99.90;;;;;;5055350;28;20390;-68
2022/04/01 09:26:29;;;;;;;3.65;1.80;;;5.70;99.90;;;;;;5054948;28;20053;-69
2022/04/01 09:28:56;;;;;;;3.10;1.70;;;5.70;99.90;;;;;;5055114;28;20040;-67
2022/04/01 09:31:24;;;;;;;6.15;1.80;;;5.60;99.90;;;;;;5054114;28;20044;-67
2022/04/01 09:33:52;;;;;;;2.90;1.70;;;5.40;99.90;;;;;;5055117;28;20452;-68
2022/04/01 09:36:33;;;;;;;5.30;1.80;;;5.20;99.90;;;;;;5054092;28;20388;-67
2022/04/01 09:39:17;;;;;;;2.70;1.63;;;5.00;99.90;;;;;;5053825;28;20041;-69
2022/04/01 09:41:59;;;;;;;4.95;1.98;;;4.80;99.90;;;;;;5054930;28;20374;-68
2022/04/01 09:44:35;;;;;;;5.55;2.22;;;4.50;99.90;;;;;;5055121;28;20036;-68
2022/04/01 09:47:04;;;;;;;5.00;2.30;;;4.30;99.90;;;;;;5053850;28;20052;-67
2022/04/01 09:49:33;;;;;;;3.38;1.80;;;4.20;99.90;;;;;;5053313;28;20102;-67
2022/04/01 09:51:59;;;;;;;4.47;2.40;;;4.10;99.90;;;;;;5054973;28;20052;-66
2022/04/01 09:54:26;;;;;;;3.15;2.13;;;4.00;99.90;;;;;;5053326;28;20053;-67
2022/04/01 09:56:55;;;;;;;4.13;2.47;;;4.10;99.90;;;;;;5054816;28;20037;-69
2022/04/01 09:59:24;;;;;;;5.10;2.22;;;4.40;99.90;;;;;;5052624;28;20041;-67
2022/04/01 10:01:50;;;;;;;5.35;2.22;;;4.50;99.90;;;;;;5054267;28;20049;-67
2022/04/01 10:04:16;;;;;;;2.97;2.10;;;4.60;99.90;;;;;;5053151;28;20037;-68
2022/04/01 10:06:42;;;;;;;4.57;2.95;;;4.60;99.90;;;;;;5053225;28;20351;-68
2022/04/01 10:09:12;;;;;;;4.47;2.25;;;4.60;99.90;;;;;;5035812;28;20080;-68
2022/04/01 10:11:41;;;;;;;3.67;2.58;;;4.90;99.90;;;;;;5053650;28;20048;-68
2022/04/01 10:14:15;;;;;;;5.18;2.20;;;5.20;99.90;;;;;;5052642;28;20373;-67
2022/04/01 10:16:46;;;;;;;3.70;2.38;;;5.50;99.90;;;;;;5054065;28;20435;-70
2022/04/01 10:19:24;;;;;;;2.42;1.50;;;5.80;99.90;;;;;;5054016;28;20055;-67
2022/04/01 10:21:51;;;;;;;3.60;2.40;;;6.00;99.90;;;;;;5052613;28;20055;-67
2022/04/01 10:24:52;;;;;;;4.72;1.60;;;6.20;99.90;;;;;;5052425;28;20055;-66
2022/04/01 10:27:40;;;;;;;3.80;2.35;;;6.20;99.90;;;;;;5054192;28;20049;-67
2022/04/01 10:30:13;;;;;;;5.45;2.30;;;6.20;99.90;;;;;;5052600;28;20073;-68
2022/04/01 10:32:42;;;;;;;4.47;1.92;;;6.20;99.90;;;;;;5052685;28;20084;-71
2022/04/01 10:35:22;;;;;;;3.75;2.03;;;6.10;99.90;;;;;;5052638;28;20338;-67
2022/04/01 10:37:53;;;;;;;3.03;2.08;;;5.90;99.90;;;;;;5052603;28;20052;-67
2022/04/01 10:40:19;;;;;;;5.68;2.50;;;5.70;99.90;;;;;;5051562;28;20373;-67
2022/04/01 10:42:48;;;;;;;5.13;2.28;;;5.60;99.90;;;;;;5052388;28;20048;-66
2022/04/01 10:45:13;;;;;;;5.45;2.45;;;5.80;99.90;;;;;;5052471;28;20033;-67
2022/04/01 10:53:52;;;;;;;5.85;2.60;;;6.40;99.90;;;;;;5052107;28;20132;-67
2022/04/01 10:56:21;;;;;;;4.35;2.10;;;6.80;99.90;;;;;;5052008;28;20123;-67
2022/04/01 10:59:04;;;;;;;5.18;2.17;;;6.90;99.90;;;;;;5052318;28;20052;-67
2022/04/01 11:01:30;;;;;;;4.18;2.90;;;6.90;99.90;;;;;;5053062;28;20519;-67
2022/04/01 11:04:09;;;;;;;4.13;2.10;;;7.00;99.90;;;;;;5052172;28;20036;-67
2022/04/01 11:07:00;;;;;;;5.78;2.33;;;7.00;99.90;;;;;;5052138;28;20048;-67
2022/04/01 11:09:47;;;;;;;2.97;2.00;;;7.30;99.90;;;;;;5050014;28;20075;-67
2022/04/01 11:12:19;;;;;;;4.30;1.85;;;7.50;99.90;;;;;;5053073;28;20048;-67
2022/04/01 11:14:57;;;;;;;3.70;1.85;;;7.40;99.90;;;;;;5051960;28;20048;-67
2022/04/01 11:17:55;;;;;;;3.47;2.25;;;7.40;99.90;;;;;;5052049;28;20501;-68
2022/04/01 11:20:27;;;;;;;4.03;2.20;;;7.40;99.90;;;;;;5052704;28;20360;-67
2022/04/01 11:22:53;;;;;;;4.65;2.10;;;7.50;99.90;;;;;;5053072;28;20045;-68
2022/04/01 11:25:25;;;;;;;4.18;2.60;;;7.90;99.90;;;;;;5034766;28;20489;-68
2022/04/01 11:27:52;;;;;;;5.90;4.55;;;8.20;99.90;;;;;;5051877;28;20055;-70
2022/04/01 11:30:22;;;;;;;4.57;2.50;;;8.30;99.90;;;;;;5085346;28;20045;-67
2022/04/01 11:32:54;;;;;;;3.72;2.00;;;8.30;99.90;;;;;;5051546;28;20049;-69
2022/04/01 11:35:31;;;;;;;3.25;1.80;;;8.40;99.90;;;;;;5051441;28;20097;-67
2022/04/01 11:37:59;;;;;;;4.15;1.90;;;8.50;99.90;;;;;;5052676;28;20462;-67
2022/04/01 11:40:27;;;;;;;4.20;2.47;;;8.60;99.90;;;;;;5082752;28;20041;-67
2022/04/01 11:43:02;;;;;;;5.40;1.80;;;8.60;99.90;;;;;;5075367;28;20073;-68
2022/04/01 11:45:33;;;;;;;4.28;1.98;;;8.70;99.90;;;;;;5052568;28;20045;-67
2022/04/01 11:47:59;;;;;;;5.15;1.92;;;8.80;99.90;;;;;;5051351;28;20073;-69
2022/04/01 11:50:26;;;;;;;4.47;1.90;;;9.00;99.90;;;;;;5052037;28;20178;-67
2022/04/01 11:52:57;;;;;;;3.03;1.90;;;9.00;99.90;;;;;;5051861;28;20056;-68
2022/04/01 11:55:28;;;;;;;3.78;1.70;;;9.00;99.90;;;;;;5052162;28;20061;-68
2022/04/01 11:57:56;;;;;;;2.65;1.95;;;8.70;99.90;;;;;;5050877;28;20049;-68
2022/04/01 12:00:27;;;;;;;5.60;1.73;;;8.80;99.90;;;;;;5048381;28;20044;-68
2022/04/01 12:02:54;;;;;;;4.97;1.52;;;8.90;99.90;;;;;;5051054;28;20520;-67
2022/04/01 12:05:22;;;;;;;3.53;1.85;;;9.00;99.90;;;;;;5052199;28;20041;-67
2022/04/01 12:10:54;;;;;;;3.47;1.80;;;9.10;99.90;;;;;;5052950;28;20084;-68
2022/04/01 12:13:21;;;;;;;4.75;1.70;;;9.10;99.90;;;;;;5056118;28;20048;-68
2022/04/01 12:15:48;;;;;;;3.13;1.58;;;9.20;99.90;;;;;;5055301;28;20101;-69
2022/04/01 12:18:17;;;;;;;4.45;1.92;;;9.30;99.90;;;;;;5068265;28;20036;-70
2022/04/01 12:20:53;;;;;;;1.85;0.93;;;9.30;99.90;;;;;;5043377;28;20052;-68
2022/04/01 12:23:21;;;;;;;5.30;1.80;;;9.20;99.90;;;;;;5072256;28;20041;-67
2022/04/01 12:25:51;;;;;;;3.90;1.80;;;9.00;99.90;;;;;;5054291;28;20084;-67
2022/04/01 12:28:20;;;;;;;5.25;1.70;;;8.90;99.90;;;;;;5054977;28;20076;-67
2022/04/01 12:30:55;;;;;;;6.73;2.00;;;8.60;99.90;;;;;;5060253;28;20072;-67
2022/04/01 12:33:28;;;;;;;3.63;1.65;;;8.40;96.50;;;;;;5054813;28;20045;-68
2022/04/01 12:36:06;;;;;;;2.13;1.20;;;8.10;97.60;;;;;;5055730;28;20053;-68
2022/04/01 12:38:37;;;;;;;3.58;1.80;;;8.00;96.60;;;;;;5054716;28;20052;-67
2022/04/01 12:41:14;;;;;;;2.25;1.45;;;7.90;97.60;;;;;;5053488;28;20175;-66
2022/04/01 12:43:41;;;;;;;6.97;1.90;;;8.00;99.90;;;;;;5037924;28;20041;-67
2022/04/01 12:46:19;;;;;;;2.75;1.73;;;8.30;99.90;;;;;;5055875;28;20120;-67
2022/04/01 12:48:49;;;;;;;4.53;1.92;;;8.50;99.90;;;;;;5051944;28;20036;-66
2022/04/01 12:51:29;;;;;;;4.18;2.00;;;8.60;99.90;;;;;;5054494;28;20048;-68
2022/04/01 12:54:04;;;;;;;3.17;1.77;;;8.50;99.90;;;;;;5054615;28;20393;-67
2022/04/01 12:56:34;;;;;;;2.42;1.40;;;8.40;99.90;;;;;;5054248;28;20041;-67
2022/04/01 12:59:06;;;;;;;2.17;1.50;;;8.50;99.90;;;;;;5054228;28;20052;-68
2022/04/01 13:01:35;;;;;;;2.85;1.63;;;8.60;99.90;;;;;;5055547;28;20382;-67
2022/04/01 13:04:02;;;;;;;3.20;1.20;;;8.70;99.90;;;;;;5054153;28;20051;-70
2022/04/01 13:06:29;;;;;;;2.97;1.02;;;8.70;98.50;;;;;;5055292;28;20044;-66
2022/04/01 13:08:59;;;;;;;5.47;1.23;;;8.60;98.70;;;;;;5054340;28;20033;-68
2022/04/01 13:11:44;;;;;;;3.28;1.42;;;8.40;97.60;;;;;;5053083;28;20049;-67
2022/04/01 13:14:24;;;;;;;3.17;1.27;;;8.10;97.20;;;;;;5055432;28;20068;-68
2022/04/01 13:16:52;;;;;;;2.50;1.50;;;7.90;97.90;;;;;;5053850;28;20060;-67
2022/04/01 13:19:27;;;;;;;4.80;1.30;;;7.70;97.60;;;;;;5055267;28;20090;-67
2022/04/01 13:21:55;;;;;;;3.28;1.60;;;7.60;98.00;;;;;;5053720;28;20049;-67
2022/04/01 13:24:33;;;;;;;2.83;1.52;;;7.70;98.70;;;;;;5054968;28;20041;-67
2022/04/01 13:26:59;;;;;;;3.72;1.40;;;7.60;99.00;;;;;;5053549;28;20517;-68